map of BLD home
BLD - Airport
Location
City:  Boulder City, Nevada, United States
Name:Boulder City Municipal Airport
ICAO:KBVU
IATA:BLD
FAA LID:BVU

Details
Type:Airport (Airfield)
Use:Public/Civil
Latitude:3556'51"N (35.947389)
Longitude:11451'41"W (-114.861388)
Datum:WGS 1984
Elevation:2203 ft (671 m)
Variation:11.45E (WMM2015v2 magnetic declination)
-0.09 annual change
Runways:2
Longest:4803 × 75 ft (1464 × 23 m), paved

Time
Time Zone:UTC-8 (DST-7)
Local Time:

Weather
METAR:KBVU 041415Z AUTO 18009G14KT 10SM FEW027 BKN037 OVC050 09/05 A2977 RMK AO2

Related Locations
Nearby:
Farthest:RRG: 11310 mi / 18202 km
Plaine Corail [Sir Gatan Duval Airport (Plaine Corail Airport)], Rodrigues Island, MU

Find:

   beyond  
but within

Other Information
Maps:
NOTAMs:
Links:
Sources:

  
  • flag of United States
  • flag of Nevada
  

Airport Diagram

Airport diagram for BLD

Airport diagram PDF from FAA

Sectional Chart

Flight Planning
at skyvector.com

Satellite Image

Google Maps Satellite view

 

Copyright © 2004-2019 Karl L. Swartz. All rights reserved.
The Great Circle Mapper name and logo are trademarks of the Great Circle Mapper.
All other trademarks mentioned herein belong to their respective owners.
Please see credits for attibutions and further copyright information.

  Follow gcmap on Facebook Follow gcmap on Twitter GCmap on LinkedIn

hCard Microformat

Geo Microformat